Friday, April 20, 2018, 4:12 PM EDT
Back to Local

KABE, Lehigh Valley International Airport

Location: Allentown, PA, United States Lat: 40.65
Local Time: 4:12 PM EDT (20:12 GMT) Lon: -75.45
Time Zone: US/Eastern Elev: 393 ft

Show me the last for .
Show Decoded

2018-04-20 15:51 METAR KABE 201951Z 32014KT 10SM CLR 11/M04 A3023 RMK AO2 SLP241 T01061044 =
2018-04-20 14:51 METAR KABE 201851Z 31012G18KT 10SM CLR 11/M04 A3024 RMK AO2 SLP242 T01061039 =
2018-04-20 13:51 METAR KABE 201751Z 33010KT 10SM FEW055 09/M04 A3024 RMK AO2 SLP242 T00891044
                 10094 20028 51002 =
2018-04-20 12:51 METAR KABE 201651Z 31012G20KT 10SM BKN049 09/M04 A3024 RMK AO2 SLP241 T00891039
                 =
2018-04-20 11:51 METAR KABE 201551Z 31013G19KT 10SM CLR 08/M04 A3023 RMK AO2 SLP240 T00781044 =
2018-04-20 10:51 METAR KABE 201451Z 31009G20KT 10SM CLR 07/M05 A3023 RMK AO2 SLP239 T00671050
                 52013 =
2018-04-20 09:51 METAR KABE 201351Z 35015KT 10SM CLR 05/M06 A3022 RMK AO2 PK WND 33027/1328
                 SLP236 T00501061 =
2018-04-20 08:51 METAR KABE 201251Z 34015G22KT 10SM FEW039 04/M06 A3020 RMK AO2 PK WND 34029/1222
                 SLP230 T00391061 =
2018-04-20 07:51 METAR KABE 201151Z 32013G21KT 10SM SCT042 03/M07 A3019 RMK AO2 SLP227 70004
                 T00331067 10033 20022 51022 =
2018-04-20 06:51 METAR KABE 201051Z 31016G22KT 10SM BKN044 02/M08 A3017 RMK AO2 PK WND 32030/1028
                 SLP220 T00221078 =
2018-04-20 05:51 METAR KABE 200951Z 33012G22KT 10SM OVC046 02/M06 A3015 RMK AO2 SLP213 T00221061
                 =
2018-04-20 04:51 METAR KABE 200851Z 31006KT 10SM BKN047 BKN055 02/M06 A3013 RMK AO2 SLP205
                 T00221061 53016 =
2018-04-20 03:51 METAR KABE 200751Z 31008KT 10SM FEW045 SCT055 02/M07 A3011 RMK AO2 SLP199
                 T00221067 =
2018-04-20 02:51 METAR KABE 200651Z 30008KT 10SM CLR 02/M07 A3009 RMK AO2 SLP191 T00221067 =
2018-04-20 01:51 METAR KABE 200551Z 31012KT 10SM CLR 02/M06 A3008 RMK AO2 SLP188 T00221056 10050
                 20022 51009 =
2018-04-20 00:51 METAR KABE 200451Z 30011KT 10SM FEW039 SCT075 03/M04 A3008 RMK AO2 SLP188
                 T00281039 400940028 =
2018-04-19 23:51 METAR KABE 200351Z 30007G16KT 10SM FEW032 BKN065 OVC080 03/M03 A3006 RMK AO2
                 SLP181 T00331033 =
2018-04-19 22:51 METAR KABE 200251Z 31014G20KT 10SM OVC039 04/M03 A3005 RMK AO2 SLP179 T00441033
                 51026 =
2018-04-19 21:51 METAR KABE 200151Z 30009KT 10SM SCT047 OVC060 05/M04 A3004 RMK AO2 SLP174
                 T00501044 =
2018-04-19 20:51 METAR KABE 200051Z 29012KT 10SM BKN060 05/M05 A3001 RMK AO2 SLP166 T00501050 =
2018-04-19 19:51 METAR KABE 192351Z 29009G17KT 10SM SCT045 SCT060 05/M03 A2997 RMK AO2 PK WND
                 30026/2300 SLP152 60000 T00501033 10083 20050 53034 =
2018-04-19 18:51 METAR KABE 192251Z 31012G25KT 10SM FEW031 SCT047 OVC055 06/M01 A2994 RMK AO2 PK
                 WND 32027/2155 RAB2156E09B33E42 SLP141 P0000 T00561011 =
2018-04-19 17:51 METAR KABE 192151Z 29016G24KT 10SM SCT060 OVC080 07/M02 A2990 RMK AO2 SLP126
                 T00721022 =
2018-04-19 16:51 METAR KABE 192051Z AUTO 33011KT 10SM OVC055 06/M01 A2987 RMK AO2 WSHFT 2009
                 RAB33E44 SLP118 P0000 60000 T00611006 53022 =
2018-04-19 16:29 METAR KABE 192029Z 34014G22KT 10SM FEW036 BKN055 OVC070 06/00 A2986 RMK AO2
                 WSHFT 2009 T00610000 =

Support USWX by starting your Amazon purchase here.